X  Fechar Metar - Info de Aeroporto     LYNI Nis Airport
Temperatura
1°C Temperatura
0°C Ptº Orvalho
93% Humidade



Vento
0 M/S
1 MPH
2 KM/H
1 NÓS



Calmaria
N
Condições Atuais

Muito Nublado Muito Nublado
Pressão 1019.92 (hPa) - 30.12 (inHg)
Visibilidade 6.2 (milha) - 10 (km)
Aeroporto
Código-Aeropoto LYNI

Localização: Nis Airport
Distância: 63 (km)

Metar:
LYNI 010230Z VRB01KT 9999 BKN033 01/M00 Q1020 NOSIG

Hora: 01-02-2023 03:30 CET